Terminal Aerodrome Forecast
Issued by NWS

Home | Current Version | Previous Version | Text Only | Print | Product List | Glossary On
Versions: 1 2 3 4 5 6 7 8 9 10 11 12 13 14
000
FTUS44 KSJT 212300
TAFJCT
TAF
KJCT 212331Z 2200/2224 18010KT P6SM BKN035
     FM220300 14006KT P6SM VCSH BKN018
     FM220500 15010KT 6SM -DZ VCSH BKN008 WS020/18040KT
     FM221100 16008KT 4SM -RA BKN006
     FM221900 19011KT P6SM VCSH BKN020=

USA.gov is the U.S. government's official web portal to all federal, state and local government web resources and services.